Time;durP1;ratioP1;P1;durP2;ratioP2;P2;SDS_P1;SDS_P2;PMS_P1;PMS_P2;Temp;Humidity;BMP_temperature;BMP_pressure;BME280_temperature;BME280_humidity;BME280_pressure;Samples;Min_cycle;Max_cycle;Signal;HPM_P1;HPM_P2
2021/12/14 07:08:43;;;;;;;;;43.33;37.67;;;;;12.36;55.17;102829.50;5107517;27;45225;-93
2021/12/14 07:15:15;;;;;;;;;48.00;40.00;;;;;12.78;53.65;102827.75;5028587;28;45539;-94
2021/12/14 07:17:46;;;;;;;;;41.00;36.67;;;;;12.77;54.52;102809.16;5013791;28;46213;-93
2021/12/14 07:20:14;;;;;;;;;45.67;37.33;;;;;13.17;53.92;102852.72;4978313;28;48170;-94
2021/12/14 07:26:35;;;;;;;;;44.00;37.00;;;;;13.39;53.69;102858.91;5027842;28;45439;-96
2021/12/14 07:38:14;;;;;;;;;44.50;38.50;;;;;13.51;53.10;102841.47;6132193;22;46304;31
2021/12/14 07:40:45;;;;;;;;;41.33;36.00;;;;;13.54;53.41;102845.81;4958476;28;46170;-94
2021/12/14 07:43:20;;;;;;;;;46.33;36.67;;;;;13.83;52.82;102883.59;4939802;28;47150;-95
2021/12/14 07:45:47;;;;;;;;;37.67;33.33;;;;;13.81;52.32;102862.34;4927980;28;46093;-96
2021/12/14 07:48:12;;;;;;;;;38.00;34.33;;;;;13.86;52.69;102856.78;5093312;23;45660;-96
2021/12/14 07:50:43;;;;;;;;;46.33;35.33;;;;;13.79;52.75;102856.22;4934123;28;46743;-95
2021/12/14 07:53:09;;;;;;;;;46.00;37.00;;;;;13.94;52.25;102883.13;4943820;28;48160;-95
2021/12/14 07:55:37;;;;;;;;;48.00;40.00;;;;;13.94;53.15;102880.44;4939873;28;45617;-95
2021/12/14 07:58:05;;;;;;;;;47.67;39.00;;;;;13.90;52.22;102873.50;4974473;28;45593;-95
2021/12/14 08:00:35;;;;;;;;;45.33;36.67;;;;;13.93;52.56;102868.03;4942200;28;45513;-95
2021/12/14 08:03:06;;;;;;;;;48.33;40.00;;;;;13.97;51.97;102874.94;4951244;28;47280;-93
2021/12/14 08:05:33;;;;;;;;;51.00;41.67;;;;;14.12;51.63;102893.84;4956615;28;45475;-95
2021/12/14 08:08:14;;;;;;;;;45.00;38.33;;;;;14.02;52.08;102880.06;4966316;28;45548;-95
2021/12/14 08:14:23;;;;;;;;;54.00;44.33;;;;;14.01;51.44;102895.22;4894002;28;45512;-95
2021/12/14 08:17:11;;;;;;;;;55.75;45.25;;;;;13.98;51.50;102898.03;4894053;28;45492;-95
2021/12/14 08:23:22;;;;;;;;;50.33;42.33;;;;;13.93;51.70;102884.03;4891964;29;45275;-95
2021/12/14 08:26:07;;;;;;;;;47.67;39.67;;;;;14.12;51.52;102917.84;4870949;29;47947;-95
2021/12/14 08:29:18;;;;;;;;;41.00;36.00;;;;;13.99;50.61;102902.44;4871134;29;45636;-95
2021/12/14 08:40:58;;;;;;;;;;;;;;;;;;;;;
2021/12/14 08:43:31;;;;;;;;;35.00;33.00;;;;;14.06;51.48;102901.19;4997596;28;67518;-95
2021/12/14 08:46:10;;;;;;;;;39.33;34.00;;;;;14.20;50.92;102923.69;4989755;28;45569;-96
2021/12/14 08:48:44;;;;;;;;;40.67;34.67;;;;;14.16;51.21;102914.13;4972509;28;47543;-93
2021/12/14 08:51:13;;;;;;;;;42.00;34.67;;;;;14.05;50.80;102891.47;4993309;28;46186;-92
2021/12/14 08:53:41;;;;;;;;;39.00;33.67;;;;;14.11;51.95;102894.78;4990003;28;45235;-94
2021/12/14 08:56:07;;;;;;;;;41.00;34.67;;;;;14.15;52.01;102901.69;4980387;28;45617;-94
2021/12/14 08:58:33;;;;;;;;;42.33;34.67;;;;;14.31;51.85;102906.31;4960604;28;46643;-94
2021/12/14 09:01:18;;;;;;;;;;;;;;;;;;;;;
2021/12/14 09:04:39;;;;;;;;;48.67;41.00;;;;;14.56;50.54;102946.03;4906582;28;68976;-94
2021/12/14 09:07:10;;;;;;;;;42.33;35.33;;;;;14.22;51.28;102911.16;4933527;28;45925;-95
2021/12/14 09:09:40;;;;;;;;;42.67;35.67;;;;;14.20;51.42;102907.69;4922368;28;47993;-95
2021/12/14 09:12:13;;;;;;;;;46.67;38.67;;;;;14.39;51.97;102939.72;4930554;28;45963;-96
2021/12/14 09:15:04;;;;;;;;;37.33;29.67;;;;;14.25;52.36;102902.13;4939865;28;44942;-96
2021/12/14 09:21:25;;;;;;;;;46.33;38.00;;;;;14.31;51.85;102895.63;4851818;29;45586;-96
2021/12/14 09:23:55;;;;;;;;;40.00;34.67;;;;;14.45;52.18;102914.50;4809528;29;44898;-96
2021/12/14 09:26:21;;;;;;;;;43.67;36.33;;;;;14.61;52.25;102935.13;4808943;29;45515;-96
2021/12/14 09:28:47;;;;;;;;;47.00;40.67;;;;;14.63;52.62;102935.91;4846016;29;45432;-96
2021/12/14 09:31:49;;;;;;;;;45.00;37.67;;;;;14.46;52.47;102905.53;4804465;29;45566;-95
2021/12/14 09:34:13;;;;;;;;;45.00;38.33;;;;;14.51;52.20;102924.88;4874034;29;45493;-96
2021/12/14 09:37:10;;;;;;;;;46.33;39.00;;;;;14.47;51.41;102915.28;4869086;29;45541;-96
2021/12/14 09:39:52;;;;;;;;;46.00;36.67;;;;;14.57;51.79;102933.56;4882593;28;45462;-96
2021/12/14 09:42:55;;;;;;;;;44.00;36.00;;;;;14.53;51.03;102937.31;4876750;29;45413;-95
2021/12/14 09:45:27;;;;;;;;;47.00;38.00;;;;;14.62;51.72;102952.88;4897764;28;45800;-96
2021/12/14 09:47:52;;;;;;;;;45.00;33.00;;;;;14.64;52.18;102953.66;4895847;28;45322;-95
2021/12/14 09:50:38;;;;;;;;;42.67;35.67;;;;;14.68;51.33;102947.25;4886337;28;45540;-95
2021/12/14 09:53:08;;;;;;;;;46.00;35.00;;;;;14.70;52.10;102953.38;4930272;28;47128;-96
2021/12/14 09:55:38;;;;;;;;;45.33;38.33;;;;;14.84;52.25;102975.84;4915004;28;45367;-96
2021/12/14 09:58:33;;;;;;;;;40.67;33.67;;;;;14.69;51.80;102943.63;4936994;28;45371;-96
2021/12/14 10:01:23;;;;;;;;;45.00;38.33;;;;;14.76;51.69;102956.66;4890176;28;45543;-95
2021/12/14 10:03:50;;;;;;;;;54.00;43.33;;;;;15.00;51.92;102983.16;4906186;28;48382;-96
2021/12/14 10:06:18;;;;;;;;;45.00;38.00;;;;;14.89;52.07;102962.31;4892525;28;45296;-96
2021/12/14 10:08:47;;;;;;;;;44.00;38.00;;;;;15.09;52.20;102977.31;4906445;28;45273;-96
2021/12/14 10:11:27;;;;;;;;;49.00;41.00;;;;;15.14;51.80;102982.44;4929051;28;45368;-96
2021/12/14 10:13:54;;;;;;;;;41.67;34.67;;;;;15.05;52.00;102951.69;4926235;28;47344;-96
2021/12/14 10:16:19;;;;;;;;;43.00;35.67;;;;;15.27;52.05;102982.69;4924731;28;45260;-96
2021/12/14 10:18:57;;;;;;;;;46.33;36.00;;;;;15.19;51.92;102964.38;4927101;28;45421;-95
2021/12/14 10:21:29;;;;;;;;;42.67;36.67;;;;;15.32;51.69;102975.28;4914316;28;45576;-95
2021/12/14 10:24:04;;;;;;;;;46.33;35.33;;;;;15.14;51.19;102940.53;4939521;28;47100;-96
2021/12/14 10:26:31;;;;;;;;;45.00;36.33;;;;;15.25;50.86;102953.34;4963513;28;45602;-96
2021/12/14 10:28:57;;;;;;;;;43.00;35.33;;;;;15.30;51.71;102954.91;4958326;28;45489;-96
2021/12/14 10:31:37;;;;;;;;;40.67;34.33;;;;;15.39;51.28;102955.31;4980632;28;45406;-94
2021/12/14 10:36:42;;;;;;;;;42.67;35.00;;;;;15.35;51.16;102948.38;4998744;22;45317;-96
2021/12/14 10:44:37;;;;;;;;;39.33;33.67;;;;;15.47;51.46;102935.28;4985488;28;45055;-96
2021/12/14 10:47:02;;;;;;;;;42.00;37.00;;;;;15.53;51.14;102944.81;4967977;28;45546;-96
2021/12/14 10:49:28;;;;;;;;;45.00;37.33;;;;;15.59;51.17;102931.09;4974312;28;44745;-96
2021/12/14 10:51:57;;;;;;;;;43.67;36.33;;;;;15.53;51.17;102912.69;4949287;28;45293;-96
2021/12/14 10:54:22;;;;;;;;;46.67;39.67;;;;;15.76;51.24;102929.31;4972746;28;47128;-96
2021/12/14 10:59:26;;;;;;;;;41.00;36.00;;;;;15.92;51.06;102932.03;5045482;22;44823;-96
2021/12/14 11:01:52;;;;;;;;;45.33;38.33;;;;;16.02;50.78;102941.28;4974995;28;45509;-96
2021/12/14 11:04:34;;;;;;;;;48.33;38.67;;;;;15.95;50.49;102910.41;4990418;28;47307;-96
2021/12/14 11:07:01;;;;;;;;;43.00;37.00;;;;;16.03;50.72;102915.38;4996712;28;45292;-95
2021/12/14 11:12:03;;;;;;;;;48.33;38.67;;;;;16.24;50.69;102912.44;5273171;22;46850;-96
2021/12/14 11:14:31;;;;;;;;;43.33;37.67;;;;;16.34;50.03;102924.38;4963984;28;47849;-96
2021/12/14 11:19:49;;;;;;;;;38.67;33.33;;;;;16.23;50.21;102890.19;4988471;28;45316;-93
2021/12/14 11:22:23;;;;;;;;;41.33;37.00;;;;;16.46;50.38;102917.44;4965124;28;45529;-94
2021/12/14 11:25:11;;;;;;;;;40.00;35.00;;;;;16.33;49.92;102879.78;4998287;28;49102;-95
2021/12/14 11:27:44;;;;;;;;;40.67;37.67;;;;;16.33;50.34;102862.84;4963082;28;45166;-96
2021/12/14 11:30:21;;;;;;;;;35.00;32.00;;;;;16.65;50.15;102916.38;4982074;28;45422;-96
2021/12/14 11:33:03;;;;;;;;;43.67;38.33;;;;;16.46;50.49;102868.34;4998125;28;45651;-93
2021/12/14 11:35:29;;;;;;;;;39.67;36.33;;;;;16.66;49.99;102896.66;4970556;28;47162;-95
2021/12/14 11:37:57;;;;;;;;;38.67;37.33;;;;;16.65;50.27;102872.63;5198562;23;45295;-94
2021/12/14 11:40:23;;;;;;;;;46.33;37.00;;;;;16.78;49.94;102888.84;4993062;28;45574;-95
2021/12/14 11:42:50;;;;;;;;;37.67;35.33;;;;;16.93;50.07;102898.63;4992082;28;45626;-96
2021/12/14 11:45:18;;;;;;;;;37.67;34.33;;;;;16.87;50.09;102876.69;4977642;28;48515;-94
2021/12/14 11:47:47;;;;;;;;;49.00;41.00;;;;;17.09;49.96;102896.84;4989530;28;45255;-96
2021/12/14 11:50:18;;;;;;;;;47.33;36.67;;;;;17.03;50.05;102871.28;4987577;28;44969;-92
2021/12/14 11:53:14;;;;;;;;;37.67;35.33;;;;;17.34;49.69;102895.38;4982835;28;45315;-91
2021/12/14 11:55:59;;;;;;;;;35.67;34.67;;;;;17.38;49.31;102890.69;4979009;28;46895;-92
2021/12/14 11:58:33;;;;;;;;;37.67;32.00;;;;;17.24;48.95;102850.31;4989353;28;45999;-92
2021/12/14 12:01:10;;;;;;;;;34.33;31.33;;;;;17.54;49.39;102880.69;5000911;28;45791;-92
2021/12/14 12:03:38;;;;;;;;;39.75;33.00;;;;;17.58;49.41;102882.22;4978527;28;45508;-92
2021/12/14 12:09:28;;;;;;;;;45.33;37.33;;;;;17.67;49.25;102874.56;4995635;28;45902;-92
2021/12/14 12:11:59;;;;;;;;;39.67;33.00;;;;;17.34;49.48;102821.13;4991871;28;45549;-92
2021/12/14 12:14:35;;;;;;;;;39.00;34.67;;;;;17.57;49.07;102848.31;4980479;28;45660;-91
2021/12/14 12:17:25;;;;;;;;;36.33;32.67;;;;;17.75;49.03;102869.56;4964878;28;47975;-93
2021/12/14 12:20:11;;;;;;;;;40.00;36.33;;;;;17.77;49.35;102858.72;5006960;28;45771;-93
2021/12/14 12:22:39;;;;;;;;;35.25;32.25;;;;;17.62;49.08;102836.38;4973796;28;45243;-93
2021/12/14 12:25:13;;;;;;;;;34.25;32.75;;;;;17.65;49.15;102838.88;4979591;28;45533;-92
2021/12/14 12:27:45;;;;;;;;;52.67;44.33;;;;;17.66;49.20;102829.88;4958459;28;47319;-92
2021/12/14 12:30:43;;;;;;;;;37.67;34.00;;;;;17.85;48.83;102856.38;4976680;28;45386;-93
2021/12/14 12:33:41;;;;;;;;;37.67;33.67;;;;;17.83;48.90;102835.97;4974334;28;45389;-93
2021/12/14 12:36:22;;;;;;;;;31.25;30.25;;;;;17.73;49.10;102815.09;4992288;28;45578;-93
2021/12/14 12:38:53;;;;;;;;;38.00;32.50;;;;;17.86;48.54;102825.03;4991321;28;47235;-91
2021/12/14 12:41:49;;;;;;;;;34.50;32.25;;;;;17.90;48.81;102831.91;4994848;28;45578;-91
2021/12/14 12:44:27;;;;;;;;;27.50;27.50;;;;;17.93;49.11;102839.75;4997258;28;44756;-96
2021/12/14 12:46:56;;;;;;;;;43.25;36.25;;;;;17.85;49.19;102820.63;5014584;28;45310;-96
2021/12/14 12:49:23;;;;;;;;;37.67;35.67;;;;;17.97;49.08;102827.88;4979722;28;47169;-96
2021/12/14 12:51:58;;;;;;;;;38.50;34.50;;;;;17.79;49.16;102790.53;4995050;28;45598;-95
2021/12/14 12:54:37;;;;;;;;;37.00;33.25;;;;;17.96;49.01;102820.78;4989019;28;45379;-93
2021/12/14 12:57:34;;;;;;;;;30.75;30.25;;;;;17.86;48.82;102800.88;4998048;28;45499;-95
2021/12/14 13:00:11;;;;;;;;;28.67;28.67;;;;;18.01;48.91;102818.63;4993676;28;47415;-93
2021/12/14 13:03:02;;;;;;;;;45.00;37.33;;;;;18.12;49.10;102819.75;4956482;28;46193;-95
2021/12/14 13:05:47;;;;;;;;;33.50;32.50;;;;;18.13;49.14;102822.34;4983942;28;45292;-96
2021/12/14 13:08:17;;;;;;;;;36.50;33.50;;;;;18.17;49.56;102814.06;4997375;28;45591;-96
2021/12/14 13:10:49;;;;;;;;;41.33;35.33;;;;;18.19;49.42;102815.69;4966355;28;47183;-94
2021/12/14 13:13:19;;;;;;;;;41.67;34.67;;;;;18.25;48.87;102814.44;4980694;28;45382;-93
2021/12/14 13:16:05;;;;;;;;;38.25;35.50;;;;;18.25;49.08;102809.06;4979532;28;45370;-93
2021/12/14 13:18:32;;;;;;;;;33.75;30.75;;;;;18.21;49.23;102794.13;4986845;28;45360;-91
2021/12/14 13:21:05;;;;;;;;;43.00;36.00;;;;;18.22;48.68;102794.03;4971331;28;47607;-96
2021/12/14 13:23:54;;;;;;;;;32.33;32.33;;;;;18.31;49.16;102800.59;4987554;28;45453;-96
2021/12/14 13:26:22;;;;;;;;;39.33;35.00;;;;;18.33;48.91;102795.16;4997350;28;45422;-92
2021/12/14 13:28:47;;;;;;;;;37.50;32.50;;;;;18.34;48.85;102795.03;4990257;28;45501;-96
2021/12/14 13:31:31;;;;;;;;;37.00;33.75;;;;;18.28;48.43;102783.81;4967849;28;56255;-95
2021/12/14 13:33:57;;;;;;;;;37.75;34.50;;;;;18.32;48.77;102788.03;4952331;28;45628;-96
2021/12/14 13:36:23;;;;;;;;;32.67;32.67;;;;;18.17;48.67;102753.16;4982191;28;45592;-94
2021/12/14 13:38:50;;;;;;;;;31.75;31.25;;;;;18.33;48.83;102779.03;4975010;28;46054;-96
2021/12/14 13:41:47;;;;;;;;;28.25;27.25;;;;;18.38;48.68;102787.63;4979885;28;47383;-96
2021/12/14 13:44:13;;;;;;;;;38.75;33.75;;;;;18.20;48.87;102750.25;4869841;29;45602;-96
2021/12/14 13:46:39;;;;;;;;;35.50;33.75;;;;;18.31;48.98;102765.69;4882996;28;45406;-93
2021/12/14 13:49:04;;;;;;;;;33.00;32.25;;;;;18.43;48.80;102774.72;4897077;29;45479;-93
2021/12/14 13:51:30;;;;;;;;;41.25;32.75;;;;;18.20;48.80;102736.84;4880029;29;47271;-94
2021/12/14 13:53:56;;;;;;;;;35.25;33.00;;;;;18.39;48.76;102767.81;4894731;29;46169;-94
2021/12/14 13:56:30;;;;;;;;;39.50;34.75;;;;;18.24;48.68;102732.97;4853024;28;45633;-94
2021/12/14 13:58:58;;;;;;;;;32.25;30.25;;;;;18.42;48.87;102773.00;4903368;28;45478;-94
2021/12/14 14:01:28;;;;;;;;;40.00;35.33;;;;;18.38;48.79;102758.06;4898216;28;47039;-94
2021/12/14 14:03:58;;;;;;;;;33.75;31.75;;;;;18.37;48.79;102753.66;4873989;29;45337;-96
2021/12/14 14:06:23;;;;;;;;;10.50;10.00;;;;;18.22;48.45;102729.56;4879180;29;45319;-95
2021/12/14 14:09:11;;;;;;;;;35.75;31.75;;;;;18.46;48.39;102763.78;4914498;28;45602;-95
2021/12/14 14:11:39;;;;;;;;;34.25;33.25;;;;;18.42;48.88;102756.88;4872055;28;45461;-95
2021/12/14 14:14:29;;;;;;;;;31.75;29.50;;;;;18.54;48.67;102771.28;4851437;28;45587;-95
2021/12/14 14:16:55;;;;;;;;;34.75;33.25;;;;;18.56;48.58;102773.84;4897409;28;45441;-96
2021/12/14 14:19:36;;;;;;;;;32.50;32.00;;;;;18.23;48.45;102725.91;4887553;28;45628;-96
2021/12/14 14:22:06;;;;;;;;;22.25;19.00;;;;;18.30;48.77;102725.50;4969149;28;47669;-96
2021/12/14 14:24:35;;;;;;;;;39.00;35.67;;;;;18.48;48.65;102762.78;4963988;28;45562;-95
2021/12/14 14:27:03;;;;;;;;;34.00;32.50;;;;;18.59;48.65;102770.97;4962143;28;45411;-96
2021/12/14 14:29:49;;;;;;;;;33.75;31.75;;;;;18.30;48.79;102733.56;4979004;28;44907;-96
2021/12/14 14:32:30;;;;;;;;;42.33;37.67;;;;;18.37;48.63;102742.03;4975367;28;45243;-95
2021/12/14 14:34:55;;;;;;;;;22.00;19.50;;;;;18.63;48.59;102791.31;4964092;28;45416;-96
2021/12/14 14:37:32;;;;;;;;;35.75;32.50;;;;;18.45;48.64;102756.66;4973011;28;45521;-95
2021/12/14 14:40:24;;;;;;;;;36.00;31.50;;;;;18.63;48.45;102782.38;4980300;28;45433;-96
2021/12/14 14:42:54;;;;;;;;;32.00;31.00;;;;;18.57;48.87;102770.22;4958887;28;48515;-95
2021/12/14 14:45:23;;;;;;;;;24.00;23.00;;;;;18.53;48.58;102761.50;5002268;28;44876;-96
2021/12/14 14:47:49;;;;;;;;;33.00;28.75;;;;;18.46;48.45;102757.53;4988418;28;47081;-95
2021/12/14 14:50:19;;;;;;;;;26.50;25.50;;;;;18.39;48.56;102746.34;4994756;28;45638;-96
2021/12/14 14:52:52;;;;;;;;;35.00;29.50;;;;;18.67;48.63;102787.41;4985817;28;47625;-95
2021/12/14 14:55:26;;;;;;;;;29.75;28.00;;;;;18.67;48.85;102792.78;4984464;28;45370;-96
2021/12/14 14:58:17;;;;;;;;;15.00;13.75;;;;;18.65;48.35;102788.50;4977660;28;45441;-96
2021/12/14 15:01:12;;;;;;;;;21.75;21.75;;;;;18.65;48.96;102778.59;4968530;28;45444;-96
2021/12/14 15:03:39;;;;;;;;;28.00;26.75;;;;;18.63;48.90;102785.94;4973747;28;48220;-96
2021/12/14 15:06:11;;;;;;;;;21.75;20.50;;;;;18.67;48.97;102787.41;4978448;28;45246;-95
2021/12/14 15:09:02;;;;;;;;;29.50;28.00;;;;;18.64;48.89;102779.59;4963044;28;45640;-94
2021/12/14 15:11:32;;;;;;;;;26.00;25.00;;;;;18.67;49.03;102781.19;4951388;28;45606;-96
2021/12/14 15:14:17;;;;;;;;;18.25;15.00;;;;;18.41;48.95;102744.41;4988628;28;48558;-95
2021/12/14 15:16:57;;;;;;;;;28.00;23.75;;;;;18.41;48.91;102749.78;4965740;28;45233;-96
2021/12/14 15:19:31;;;;;;;;;22.50;19.25;;;;;18.67;48.87;102781.19;5003876;28;45384;-96
2021/12/14 15:21:59;;;;;;;;;21.75;20.75;;;;;18.51;48.95;102760.75;4996468;28;45429;-96
2021/12/14 15:24:35;;;;;;;;;25.00;21.50;;;;;18.64;49.13;102784.97;4962962;28;47179;-96
2021/12/14 15:27:10;;;;;;;;;24.60;20.40;;;;;18.64;48.79;102784.09;4985471;28;45513;-96
2021/12/14 15:29:37;;;;;;;;;27.50;23.00;;;;;18.41;48.91;102755.16;5012577;28;45545;-96
2021/12/14 15:32:14;;;;;;;;;18.75;17.75;;;;;18.60;48.52;102780.75;4983424;28;45251;-96
2021/12/14 15:34:55;;;;;;;;;23.00;22.67;;;;;18.58;48.95;102782.69;5319409;22;47979;-96
2021/12/14 15:37:40;;;;;;;;;23.50;20.50;;;;;18.55;48.81;102777.53;4964928;28;46223;-96
2021/12/14 15:40:26;;;;;;;;;28.50;23.25;;;;;18.24;48.64;102732.16;4959043;28;45350;-96
2021/12/14 15:43:00;;;;;;;;;25.25;22.25;;;;;18.48;49.17;102779.78;5115703;23;45910;-95
2021/12/14 15:45:58;;;;;;;;;23.75;21.50;;;;;18.46;48.97;102785.28;4958741;28;47569;-95
2021/12/14 15:48:41;;;;;;;;;31.50;28.25;;;;;18.32;49.08;102770.09;4958087;28;45695;-94
2021/12/14 15:51:18;;;;;;;;;30.50;26.50;;;;;18.15;49.41;102744.34;4945464;28;45523;-96
2021/12/14 15:53:50;;;;;;;;;34.00;28.00;;;;;18.18;49.32;102760.25;4930694;28;45558;-95
2021/12/14 15:56:29;;;;;;;;;27.00;26.50;;;;;18.34;49.40;102778.91;4930201;28;47332;-96
2021/12/14 15:59:10;;;;;;;;;24.50;22.75;;;;;18.24;49.09;102775.97;4935213;28;45927;-95
2021/12/14 16:02:18;;;;;;;;;32.00;26.00;;;;;18.29;49.52;102777.50;4955631;28;45353;-96
2021/12/14 16:07:21;;;;;;;;;28.00;25.75;;;;;18.21;49.40;102776.22;5168693;23;46149;-96
2021/12/14 16:09:49;;;;;;;;;29.75;27.75;;;;;18.04;49.39;102758.50;4965572;28;44896;-96
2021/12/14 16:15:14;;;;;;;;;30.50;28.25;;;;;18.01;49.35;102759.56;4972543;28;44770;-95
2021/12/14 16:17:54;;;;;;;;;30.25;26.75;;;;;17.99;49.54;102771.38;4970749;28;47476;-96
2021/12/14 16:20:49;;;;;;;;;27.75;24.25;;;;;17.82;49.40;102753.69;4973515;28;45307;-96
2021/12/14 16:23:36;;;;;;;;;26.25;23.75;;;;;17.79;49.73;102755.63;5127232;23;45622;-96
2021/12/14 16:26:15;;;;;;;;;27.75;25.50;;;;;17.72;50.03;102757.00;4997237;23;46216;-96
2021/12/14 16:34:07;;;;;;;;;28.50;27.25;;;;;17.62;50.51;102755.88;5145277;23;45261;-97
2021/12/14 16:36:47;;;;;;;;;8.25;8.25;;;;;17.57;50.59;102757.06;4948421;28;45432;-96
2021/12/14 16:39:15;;;;;;;;;29.75;27.00;;;;;17.73;50.57;102782.88;4928472;28;46623;-95
2021/12/14 16:41:46;;;;;;;;;21.75;18.75;;;;;17.76;50.62;102790.72;4911881;28;46170;-96
2021/12/14 16:44:36;;;;;;;;;24.25;22.75;;;;;17.58;50.41;102758.75;4957604;28;44843;-96
2021/12/14 16:47:07;;;;;;;;;28.00;22.50;;;;;17.70;50.49;102783.06;4932665;28;45410;-95
2021/12/14 16:49:46;;;;;;;;;27.50;26.50;;;;;17.55;50.62;102768.84;4921912;28;46906;-95
2021/12/14 16:52:17;;;;;;;;;26.00;26.00;;;;;17.53;50.94;102760.88;4964310;28;44841;-96
2021/12/14 16:54:46;;;;;;;;;28.00;25.50;;;;;17.65;50.78;102785.19;4944025;28;45240;-96
2021/12/14 16:57:14;;;;;;;;;24.25;23.25;;;;;17.62;50.88;102791.63;4948385;28;45518;-96
2021/12/14 16:59:49;;;;;;;;;26.00;23.50;;;;;17.70;50.80;102799.19;4938515;28;47212;-96
2021/12/14 17:02:21;;;;;;;;;25.80;21.20;;;;;17.64;50.86;102783.50;4920010;28;45586;-95
2021/12/14 17:05:00;;;;;;;;;20.00;17.50;;;;;17.80;50.98;102813.75;4907692;28;45758;-96
2021/12/14 17:07:31;;;;;;;;;23.00;21.50;;;;;17.64;50.84;102788.88;4924646;28;45916;-93
2021/12/14 17:09:57;;;;;;;;;20.50;20.50;;;;;17.65;50.79;102796.81;4904489;28;47390;-95
2021/12/14 17:12:23;;;;;;;;;25.50;24.00;;;;;17.70;50.70;102801.88;4933152;28;45480;-93
2021/12/14 17:15:24;;;;;;;;;20.75;19.00;;;;;17.83;50.70;102822.53;4932337;28;45481;-96
2021/12/14 17:18:03;;;;;;;;;27.00;24.25;;;;;17.63;50.80;102797.88;4946720;28;45370;-94
2021/12/14 17:21:48;;;;;;;;;26.00;22.00;;;;;17.80;50.28;102832.53;4907265;28;47868;-95
2021/12/14 17:24:53;;;;;;;;;;;;;;;;;;;;;
2021/12/14 17:27:32;;;;;;;;;22.25;22.25;;;;;17.57;50.83;102804.50;4866069;29;68463;-94
2021/12/14 17:30:00;;;;;;;;;23.75;22.50;;;;;17.83;51.11;102835.97;4846037;29;45483;-93
2021/12/14 17:32:31;;;;;;;;;25.25;20.25;;;;;17.66;50.98;102811.09;4871038;29;47534;-94
2021/12/14 17:35:38;;;;;;;;;28.00;24.00;;;;;17.85;50.93;102834.03;4838943;29;45554;-94
2021/12/14 17:38:37;;;;;;;;;25.00;23.50;;;;;17.85;50.83;102834.03;4879667;29;45620;-93
2021/12/14 17:48:10;;;;;;;;;24.20;20.40;;;;;17.50;51.01;102793.28;4752975;29;45649;-95
2021/12/14 17:57:44;;;;;;;;;23.50;22.25;;;;;17.61;50.73;102826.63;4683820;30;45378;-95
2021/12/14 18:00:21;;;;;;;;;25.50;24.25;;;;;17.54;50.93;102816.28;4699812;30;45507;-94
2021/12/14 18:03:12;;;;;;;;;26.25;25.75;;;;;17.54;50.98;102818.09;4714999;30;45734;-93
2021/12/14 18:12:00;;;;;;;;;24.75;23.75;;;;;17.34;51.07;102799.66;4697984;30;45476;-93
2021/12/14 18:14:31;;;;;;;;;23.25;22.25;;;;;17.38;51.06;102815.56;4646864;30;45431;-96
2021/12/14 18:17:05;;;;;;;;;27.50;24.75;;;;;17.36;51.03;102819.19;4678868;30;45929;-96
2021/12/14 18:20:14;;;;;;;;;;;;;;;;;;;;;
2021/12/14 18:29:19;;;;;;;;;24.00;20.75;;;;;17.37;51.25;102846.88;4905335;28;45447;-95
2021/12/14 18:32:18;;;;;;;;;31.00;28.50;;;;;17.22;51.02;102827.22;4858269;29;47222;-96
2021/12/14 18:34:44;;;;;;;;;28.50;25.25;;;;;17.41;51.31;102856.44;4878379;29;45489;-96
2021/12/14 18:42:42;;;;;;;;;23.75;21.75;;;;;17.30;51.44;102845.53;5223723;23;45777;-95
2021/12/14 18:45:12;;;;;;;;;28.25;24.50;;;;;17.23;51.51;102839.69;4964390;28;45563;-93
2021/12/14 18:51:16;;;;;;;;;;;;;;;;;;;;;
2021/12/14 18:53:42;;;;;;;;;32.25;30.25;;;;;17.33;51.15;102856.06;4938784;28;75611;-95
2021/12/14 18:56:39;;;;;;;;;;;;;;;;;;;;;
2021/12/14 19:03:32;;;;;;;;;27.25;26.75;;;;;17.05;51.06;102821.06;4839490;29;46153;-96
2021/12/14 19:06:15;;;;;;;;;;;;;;;;;;;;;
2021/12/14 19:09:22;;;;;;;;;31.00;27.50;;;;;17.11;51.60;102841.28;4782708;29;72856;-93
2021/12/14 19:20:45;;;;;;;;;34.25;31.75;;;;;17.21;51.49;102868.44;4991125;28;45531;-94
2021/12/14 19:23:45;;;;;;;;;28.75;25.25;;;;;17.01;51.29;102832.97;4980988;28;45316;-94
2021/12/14 19:26:17;;;;;;;;;30.33;29.00;;;;;17.04;51.84;102844.34;4972334;28;45577;-93
2021/12/14 19:29:05;;;;;;;;;28.25;28.25;;;;;17.25;51.77;102875.34;4957975;28;47032;-93
2021/12/14 19:35:38;;;;;;;;;40.67;34.00;;;;;16.93;52.08;102830.72;4938422;28;45790;-94
2021/12/14 19:38:23;;;;;;;;;36.67;33.67;;;;;17.09;51.72;102860.16;4915023;28;45406;-96
2021/12/14 19:40:51;;;;;;;;;40.00;34.00;;;;;17.19;52.24;102876.56;4918400;28;47242;-96
2021/12/14 19:43:22;;;;;;;;;34.00;32.00;;;;;16.88;52.50;102836.38;4932424;28;45317;-96
2021/12/14 19:45:55;;;;;;;;;29.75;27.25;;;;;17.07;52.07;102856.69;4975078;23;45475;-96
2021/12/14 19:48:25;;;;;;;;;33.67;31.67;;;;;17.04;52.28;102856.88;5012343;23;45605;-96
2021/12/14 19:54:16;;;;;;;;;38.33;32.67;;;;;16.91;51.95;102836.22;4978409;28;45610;-96
2021/12/14 19:56:43;;;;;;;;;35.33;33.33;;;;;16.97;51.82;102847.50;4964330;28;45360;-96
2021/12/14 19:59:09;;;;;;;;;32.67;28.33;;;;;16.99;52.45;102848.25;4973701;28;45593;-96
2021/12/14 20:01:38;;;;;;;;;43.67;34.67;;;;;16.87;52.00;102829.28;4947356;28;46802;-96
2021/12/14 20:04:22;;;;;;;;;29.33;27.67;;;;;17.13;52.28;102872.41;4957291;28;44818;-96
2021/12/14 20:07:01;;;;;;;;;44.00;35.67;;;;;17.08;51.96;102869.16;4969704;28;45575;-96
2021/12/14 20:09:36;;;;;;;;;39.67;33.67;;;;;16.83;52.26;102827.78;4948996;28;45745;-96
2021/12/14 20:12:41;;;;;;;;;35.67;32.33;;;;;17.10;51.83;102877.97;4913784;28;47139;-94
2021/12/14 20:19:22;;;;;;;;;35.33;30.67;;;;;16.80;51.89;102834.19;4925246;28;45445;-96
2021/12/14 20:21:53;;;;;;;;;41.00;34.00;;;;;16.93;52.26;102861.09;4924351;28;45486;-95
2021/12/14 20:24:27;;;;;;;;;33.00;32.67;;;;;16.79;52.21;102839.63;4887285;28;46985;-96
2021/12/14 20:27:22;;;;;;;;;36.00;33.00;;;;;17.02;51.85;102880.25;4902427;28;45320;-96
2021/12/14 20:30:17;;;;;;;;;44.00;36.67;;;;;16.78;51.86;102835.25;4913604;28;45452;-96
2021/12/14 20:32:45;;;;;;;;;35.00;32.33;;;;;16.83;52.28;102854.56;4860232;29;45648;-96
2021/12/14 20:35:30;;;;;;;;;39.33;34.33;;;;;16.72;51.84;102819.53;4865162;29;47431;-96
2021/12/14 20:38:00;;;;;;;;;34.33;32.00;;;;;16.77;51.86;102833.50;4848684;29;47488;-96
2021/12/14 20:40:32;;;;;;;;;37.67;34.33;;;;;16.74;52.03;102829.19;4864043;29;45852;-96
2021/12/14 20:48:30;;;;;;;;;34.33;32.00;;;;;16.78;52.04;102832.56;4847543;29;45215;-96
2021/12/14 20:51:06;;;;;;;;;38.00;33.33;;;;;16.87;51.80;102861.47;4842865;29;47081;-94
2021/12/14 20:53:32;;;;;;;;;39.00;33.00;;;;;16.90;51.92;102865.78;4867762;29;45511;-96
2021/12/14 20:56:04;;;;;;;;;41.00;35.00;;;;;16.60;51.97;102821.97;4875940;29;47305;-94
2021/12/14 20:58:58;;;;;;;;;40.00;35.33;;;;;16.91;51.83;102879.09;4868340;29;45530;-92
2021/12/14 21:02:05;;;;;;;;;31.33;30.33;;;;;16.77;51.66;102866.53;5481452;23;46733;-95
2021/12/14 21:04:33;;;;;;;;;35.00;31.00;;;;;16.81;51.78;102877.91;4964473;28;45278;-95
2021/12/14 21:07:07;;;;;;;;;33.67;29.33;;;;;16.68;51.78;102861.72;4981968;28;46975;-95
2021/12/14 21:09:36;;;;;;;;;36.00;29.67;;;;;16.83;51.57;102886.75;4963703;28;45469;-94
2021/12/14 21:12:02;;;;;;;;;37.33;33.00;;;;;16.83;52.00;102888.56;4984570;28;45371;-95
2021/12/14 21:14:34;;;;;;;;;32.67;30.67;;;;;16.62;52.07;102857.59;4976796;28;45284;-94
2021/12/14 21:17:06;;;;;;;;;32.33;29.67;;;;;16.70;51.86;102866.03;4981440;28;47377;-96
2021/12/14 21:19:42;;;;;;;;;32.00;31.00;;;;;16.70;51.91;102865.16;4966913;28;45507;-96
2021/12/14 21:23:00;;;;;;;;;32.67;31.33;;;;;16.77;51.82;102882.63;4999936;28;45432;-94